Saturday, November 18, 2017, 1:18 AM EST
Back to Local

KALB, Albany International Airport

Location: Latham, NY, United States Lat: 42.75
Local Time: 1:18 AM EST ( 6:18 GMT) Lon: -73.8
Time Zone: US/Eastern Elev: 285 ft

Show me the last for .
Show Decoded

2017-11-18 00:51 METAR KALB 180551Z 05003KT 10SM SCT260 M04/M08 A3004 RMK AO2 SLP177 T10391078
                 10000 21050 58008 =
2017-11-17 23:51 METAR KALB 180451Z 00000KT 10SM FEW260 M03/M08 A3006 RMK AO2 SLP183 T10331083
                 400441039 =
2017-11-17 22:51 METAR KALB 180351Z 00000KT 10SM FEW260 M02/M08 A3008 RMK AO2 SLP189 T10221083 =
2017-11-17 21:51 METAR KALB 180251Z 28005KT 10SM CLR M02/M08 A3007 RMK AO2 SLP185 T10171078 56014
                 =
2017-11-17 20:51 METAR KALB 180151Z VRB03KT 10SM FEW150 M01/M08 A3008 RMK AO2 SLP189 T10111083 =
2017-11-17 19:51 METAR KALB 180051Z 30009KT 10SM FEW150 00/M09 A3010 RMK AO2 SLP195 T00001089 =
2017-11-17 18:51 METAR KALB 172351Z 30006KT 10SM CLR 00/M09 A3011 RMK AO2 SLP199 T00001089 10039
                 20000 51007 =
2017-11-17 17:51 METAR KALB 172251Z 28010KT 10SM FEW250 01/M08 A3010 RMK AO2 SLP197 T00061083 =
2017-11-17 16:51 METAR KALB 172151Z 28014G22KT 10SM FEW250 01/M08 A3010 RMK AO2 PK WND 27027/2053
                 SLP195 T00111078 =
2017-11-17 15:51 METAR KALB 172051Z 28019KT 10SM CLR 03/M07 A3009 RMK AO2 SLP191 T00281072 53008
                 =
2017-11-17 14:51 METAR KALB 171951Z 30014G19KT 10SM FEW200 04/M07 A3008 RMK AO2 PK WND 28026/1852
                 SLP187 T00391072 =
2017-11-17 13:51 METAR KALB 171851Z 28018G26KT 10SM FEW036 FEW200 04/M07 A3006 RMK AO2 PK WND
                 28027/1819 SLP182 T00391072 =
2017-11-17 12:51 METAR KALB 171751Z 29012G21KT 10SM FEW036 03/M07 A3006 RMK AO2 SLP183 T00331067
                 10039 20006 56008 =
2017-11-17 11:51 METAR KALB 171651Z 31015G20KT 10SM FEW036 03/M07 A3007 RMK AO2 PK WND 29026/1554
                 SLP185 T00331067 =
2017-11-17 10:51 METAR KALB 171551Z 30017G24KT 10SM SCT030 03/M06 A3008 RMK AO2 PK WND 29028/1513
                 SLP188 SCT V FEW T00281061 =
2017-11-17 09:51 METAR KALB 171451Z 31018G28KT 10SM BKN030 01/M07 A3009 RMK AO2 PK WND 30030/1354
                 SLP192 T00061067 51019 =
2017-11-17 09:41 METAR KALB 171441Z 32019G26KT 10SM BKN030 02/M06 A3009 =
2017-11-17 08:51 METAR KALB 171351Z 32021G28KT 10SM FEW026 BKN029 BKN036 01/M06 A3009 RMK AO2 PK
                 WND 31028/1343 SLP191 T00111061 =
2017-11-17 08:37 METAR KALB 171337Z 32014G21KT 10SM SCT026 BKN029 BKN036 01/M06 A3009 RMK AO2
                 T00111056 =
2017-11-17 07:51 METAR KALB 171251Z 31020G25KT 10SM SCT028 BKN036 01/M06 A3007 RMK AO2 PK WND
                 29030/1240 SLP184 T00061056 =
2017-11-17 07:13 METAR KALB 171213Z 29016G26KT 10SM SCT028 OVC033 01/M06 A3006 RMK AO2 PK WND
                 30028/1202 OCNL BINOVC T00111056 =
2017-11-17 06:51 METAR KALB 171151Z 31015G20KT 10SM OVC029 01/M05 A3003 RMK AO2 PK WND 32029/1102
                 SLP173 OCNL BINOVC T00111050 10039 20011 53030 =
2017-11-17 06:36 METAR KALB 171136Z 30015G25KT 10SM BKN029 OVC035 01/M05 A3003 RMK AO2 PK WND
                 32029/1102 T00111050 =
2017-11-17 05:51 METAR KALB 171051Z 29021G35KT 10SM BKN035 01/M05 A2999 RMK AO2 PK WND 29035/1047
                 SLP159 T00111050 =
2017-11-17 04:51 METAR KALB 170951Z 31017G22KT 10SM OVC032 02/M04 A2998 RMK AO2 PK WND 29030/0919
                 SLP154 T00221044 =
2017-11-17 03:51 METAR KALB 170851Z 30014G24KT 10SM OVC035 03/M04 A2994 RMK AO2 PK WND 29027/0834
                 SLP142 T00281039 51025 =
2017-11-17 02:51 METAR KALB 170751Z COR 30018G32KT 10SM BKN032 OVC039 03/M04 A2992 RMK AO2 PK WND
                 30032/0745 SLP135 T00281039 =
2017-11-17 01:51 METAR KALB 170651Z 30018G26KT 10SM FEW034 BKN043 BKN075 03/M03 A2990 RMK AO2 PK
                 WND 28029/0640 SLP126 T00331033 =

Support USWX by starting your Amazon purchase here.